sensor_id;sensor_type;location;lat;lon;timestamp;pressure;altitude;pressure_sealevel;temperature;humidity
61963;BME280;47927;42.646;23.096;2022-11-13T00:01:24;93382.91;;;7.72;69.83
61963;BME280;47927;42.646;23.096;2022-11-13T00:04:09;93370.97;;;8.18;68.54
61963;BME280;47927;42.646;23.096;2022-11-13T00:06:53;93373.63;;;8.10;68.54
61963;BME280;47927;42.646;23.096;2022-11-13T00:09:37;93366.69;;;7.84;69.61
61963;BME280;47927;42.646;23.096;2022-11-13T00:12:21;93345.16;;;7.54;70.30
61963;BME280;47927;42.646;23.096;2022-11-13T00:22:29;93369.91;;;7.34;71.87
61963;BME280;47927;42.646;23.096;2022-11-13T00:25:14;93340.28;;;6.62;68.36
61963;BME280;47927;42.646;23.096;2022-11-13T00:27:57;93368.31;;;6.60;68.51
61963;BME280;47927;42.646;23.096;2022-11-13T00:30:41;93372.72;;;7.03;66.87
61963;BME280;47927;42.646;23.096;2022-11-13T00:33:25;93355.28;;;7.38;64.90
61963;BME280;47927;42.646;23.096;2022-11-13T00:36:15;93354.00;;;7.53;63.66
61963;BME280;47927;42.646;23.096;2022-11-13T00:42:46;93367.25;;;7.98;61.95
61963;BME280;47927;42.646;23.096;2022-11-13T00:45:30;93380.44;;;8.14;61.65
61963;BME280;47927;42.646;23.096;2022-11-13T00:48:14;93330.31;;;7.63;62.29
61963;BME280;47927;42.646;23.096;2022-11-13T00:50:58;93333.53;;;7.13;63.31
61963;BME280;47927;42.646;23.096;2022-11-13T00:53:43;93371.88;;;7.46;64.28
61963;BME280;47927;42.646;23.096;2022-11-13T00:56:26;93317.03;;;7.26;65.16
61963;BME280;47927;42.646;23.096;2022-11-13T00:59:11;93315.13;;;7.53;63.40
61963;BME280;47927;42.646;23.096;2022-11-13T01:01:55;93315.97;;;7.66;62.42
61963;BME280;47927;42.646;23.096;2022-11-13T01:04:40;93351.78;;;7.72;59.63
61963;BME280;47927;42.646;23.096;2022-11-13T01:07:25;93323.25;;;7.34;60.28
61963;BME280;47927;42.646;23.096;2022-11-13T01:10:09;93356.81;;;7.30;63.03
61963;BME280;47927;42.646;23.096;2022-11-13T01:12:53;93370.22;;;7.41;62.11
61963;BME280;47927;42.646;23.096;2022-11-13T01:15:39;93351.50;;;7.27;60.84
61963;BME280;47927;42.646;23.096;2022-11-13T01:18:23;93363.88;;;7.13;62.33
61963;BME280;47927;42.646;23.096;2022-11-13T01:21:12;93331.91;;;6.91;60.47
61963;BME280;47927;42.646;23.096;2022-11-13T01:23:57;93339.69;;;6.82;63.57
61963;BME280;47927;42.646;23.096;2022-11-13T01:26:41;93299.13;;;6.87;64.56
61963;BME280;47927;42.646;23.096;2022-11-13T01:29:24;93348.25;;;7.39;65.21
61963;BME280;47927;42.646;23.096;2022-11-13T01:32:08;93328.50;;;7.55;66.23
61963;BME280;47927;42.646;23.096;2022-11-13T01:34:52;93362.91;;;7.82;67.25
61963;BME280;47927;42.646;23.096;2022-11-13T01:37:36;93333.41;;;7.57;68.23
61963;BME280;47927;42.646;23.096;2022-11-13T01:40:20;93300.81;;;7.76;67.45
61963;BME280;47927;42.646;23.096;2022-11-13T01:43:22;93299.47;;;7.70;67.13
61963;BME280;47927;42.646;23.096;2022-11-13T01:46:12;93345.91;;;7.93;67.12
61963;BME280;47927;42.646;23.096;2022-11-13T01:49:01;93351.06;;;8.02;66.45
61963;BME280;47927;42.646;23.096;2022-11-13T01:54:47;93352.22;;;7.36;66.42
61963;BME280;47927;42.646;23.096;2022-11-13T01:57:33;93349.44;;;7.50;65.19
61963;BME280;47927;42.646;23.096;2022-11-13T02:00:17;93338.16;;;7.46;64.52
61963;BME280;47927;42.646;23.096;2022-11-13T02:03:02;93354.63;;;7.50;63.77
61963;BME280;47927;42.646;23.096;2022-11-13T02:09:36;93359.88;;;7.33;64.45
61963;BME280;47927;42.646;23.096;2022-11-13T02:15:16;93309.41;;;7.21;62.95
61963;BME280;47927;42.646;23.096;2022-11-13T02:18:02;93367.13;;;7.48;62.80
61963;BME280;47927;42.646;23.096;2022-11-13T02:21:07;93293.06;;;6.82;63.87
61963;BME280;47927;42.646;23.096;2022-11-13T02:24:30;93372.09;;;7.15;64.14
61963;BME280;47927;42.646;23.096;2022-11-13T02:27:23;93372.88;;;7.06;65.45
61963;BME280;47927;42.646;23.096;2022-11-13T02:30:30;93370.63;;;7.52;63.77
61963;BME280;47927;42.646;23.096;2022-11-13T02:33:32;93374.13;;;7.65;63.42
61963;BME280;47927;42.646;23.096;2022-11-13T02:36:19;93350.38;;;7.37;63.91
61963;BME280;47927;42.646;23.096;2022-11-13T02:39:08;93355.69;;;7.49;63.92
61963;BME280;47927;42.646;23.096;2022-11-13T02:41:53;93371.88;;;7.37;64.35
61963;BME280;47927;42.646;23.096;2022-11-13T02:44:37;93337.75;;;7.35;63.99
61963;BME280;47927;42.646;23.096;2022-11-13T02:47:21;93365.22;;;7.74;62.83
61963;BME280;47927;42.646;23.096;2022-11-13T02:50:05;93358.97;;;7.67;61.22
61963;BME280;47927;42.646;23.096;2022-11-13T02:52:50;93379.75;;;7.58;60.99
61963;BME280;47927;42.646;23.096;2022-11-13T02:55:34;93362.78;;;7.22;61.45
61963;BME280;47927;42.646;23.096;2022-11-13T02:58:18;93329.19;;;6.61;62.85
61963;BME280;47927;42.646;23.096;2022-11-13T03:01:02;93386.56;;;7.07;62.43
61963;BME280;47927;42.646;23.096;2022-11-13T03:03:47;93389.44;;;7.31;61.85
61963;BME280;47927;42.646;23.096;2022-11-13T03:06:31;93354.59;;;6.51;62.57
61963;BME280;47927;42.646;23.096;2022-11-13T03:09:15;93341.97;;;6.32;65.35
61963;BME280;47927;42.646;23.096;2022-11-13T03:12:00;93379.88;;;7.06;63.84
61963;BME280;47927;42.646;23.096;2022-11-13T03:14:43;93383.69;;;6.74;64.96
61963;BME280;47927;42.646;23.096;2022-11-13T03:17:30;93386.16;;;6.88;66.69
61963;BME280;47927;42.646;23.096;2022-11-13T03:20:14;93388.88;;;7.17;62.69
61963;BME280;47927;42.646;23.096;2022-11-13T03:22:59;93288.34;;;6.58;62.86
61963;BME280;47927;42.646;23.096;2022-11-13T03:25:53;93352.72;;;7.29;63.56
61963;BME280;47927;42.646;23.096;2022-11-13T03:28:37;93354.78;;;7.45;62.42
61963;BME280;47927;42.646;23.096;2022-11-13T03:31:21;93363.56;;;7.61;62.14
61963;BME280;47927;42.646;23.096;2022-11-13T03:34:05;93379.91;;;7.70;60.93
61963;BME280;47927;42.646;23.096;2022-11-13T03:36:49;93378.72;;;7.50;61.11
61963;BME280;47927;42.646;23.096;2022-11-13T03:39:33;93400.41;;;7.28;62.08
61963;BME280;47927;42.646;23.096;2022-11-13T03:42:17;93328.41;;;6.78;62.23
61963;BME280;47927;42.646;23.096;2022-11-13T03:45:01;93401.31;;;7.41;62.01
61963;BME280;47927;42.646;23.096;2022-11-13T03:51:30;93390.31;;;7.53;61.33
61963;BME280;47927;42.646;23.096;2022-11-13T03:54:14;93399.13;;;7.61;60.53
61963;BME280;47927;42.646;23.096;2022-11-13T03:57:00;93360.31;;;7.35;60.48
61963;BME280;47927;42.646;23.096;2022-11-13T03:59:44;93327.44;;;7.09;61.22
61963;BME280;47927;42.646;23.096;2022-11-13T04:02:28;93397.88;;;7.67;60.82
61963;BME280;47927;42.646;23.096;2022-11-13T04:05:12;93345.09;;;7.16;61.92
61963;BME280;47927;42.646;23.096;2022-11-13T04:07:56;93400.03;;;7.73;62.35
61963;BME280;47927;42.646;23.096;2022-11-13T04:10:40;93396.47;;;7.78;61.92
61963;BME280;47927;42.646;23.096;2022-11-13T04:13:24;93400.09;;;7.94;62.24
61963;BME280;47927;42.646;23.096;2022-11-13T04:16:08;93401.38;;;8.18;62.25
61963;BME280;47927;42.646;23.096;2022-11-13T04:18:53;93396.84;;;8.36;61.15
61963;BME280;47927;42.646;23.096;2022-11-13T04:21:37;93397.91;;;8.35;60.72
61963;BME280;47927;42.646;23.096;2022-11-13T04:24:21;93366.66;;;8.22;60.41
61963;BME280;47927;42.646;23.096;2022-11-13T04:27:05;93403.69;;;8.40;59.76
61963;BME280;47927;42.646;23.096;2022-11-13T04:29:49;93303.00;;;7.66;60.40
61963;BME280;47927;42.646;23.096;2022-11-13T04:36:23;93407.19;;;8.44;61.14
61963;BME280;47927;42.646;23.096;2022-11-13T04:39:07;93366.91;;;8.30;60.88
61963;BME280;47927;42.646;23.096;2022-11-13T04:42:11;93406.06;;;8.54;61.28
61963;BME280;47927;42.646;23.096;2022-11-13T04:45:20;93404.53;;;8.23;63.41
61963;BME280;47927;42.646;23.096;2022-11-13T04:48:04;93380.59;;;8.18;63.58
61963;BME280;47927;42.646;23.096;2022-11-13T04:50:48;93380.28;;;8.49;62.41
61963;BME280;47927;42.646;23.096;2022-11-13T04:53:32;93404.47;;;8.83;61.52
61963;BME280;47927;42.646;23.096;2022-11-13T04:56:17;93347.16;;;8.46;61.06
61963;BME280;47927;42.646;23.096;2022-11-13T04:59:01;93402.28;;;8.94;61.00
61963;BME280;47927;42.646;23.096;2022-11-13T05:01:44;93405.06;;;8.88;61.48
61963;BME280;47927;42.646;23.096;2022-11-13T05:04:28;93408.81;;;9.00;61.40
61963;BME280;47927;42.646;23.096;2022-11-13T05:07:12;93394.84;;;9.04;60.92
61963;BME280;47927;42.646;23.096;2022-11-13T05:09:56;93410.00;;;8.81;60.77
61963;BME280;47927;42.646;23.096;2022-11-13T05:12:41;93373.63;;;8.10;64.04
61963;BME280;47927;42.646;23.096;2022-11-13T05:15:25;93409.09;;;7.41;65.67
61963;BME280;47927;42.646;23.096;2022-11-13T05:18:09;93353.19;;;6.19;67.05
61963;BME280;47927;42.646;23.096;2022-11-13T05:20:53;93416.16;;;7.06;65.37
61963;BME280;47927;42.646;23.096;2022-11-13T05:23:37;93384.88;;;7.28;63.89
61963;BME280;47927;42.646;23.096;2022-11-13T05:26:21;93413.63;;;7.70;62.52
61963;BME280;47927;42.646;23.096;2022-11-13T05:29:05;93420.44;;;7.84;62.41
61963;BME280;47927;42.646;23.096;2022-11-13T05:31:49;93415.69;;;7.86;62.58
61963;BME280;47927;42.646;23.096;2022-11-13T05:34:33;93415.34;;;7.96;62.11
61963;BME280;47927;42.646;23.096;2022-11-13T05:37:17;93385.63;;;7.85;61.40
61963;BME280;47927;42.646;23.096;2022-11-13T05:40:01;93366.25;;;7.82;61.52
61963;BME280;47927;42.646;23.096;2022-11-13T05:42:45;93429.47;;;8.16;61.95
61963;BME280;47927;42.646;23.096;2022-11-13T05:45:29;93415.94;;;8.31;61.49
61963;BME280;47927;42.646;23.096;2022-11-13T05:48:13;93431.13;;;8.50;61.42
61963;BME280;47927;42.646;23.096;2022-11-13T05:51:11;93412.97;;;8.50;61.76
61963;BME280;47927;42.646;23.096;2022-11-13T05:53:57;93440.97;;;8.65;62.07
61963;BME280;47927;42.646;23.096;2022-11-13T05:56:41;93443.78;;;8.81;61.91
61963;BME280;47927;42.646;23.096;2022-11-13T05:59:25;93425.47;;;8.78;61.91
61963;BME280;47927;42.646;23.096;2022-11-13T06:02:08;93452.06;;;9.04;61.76
61963;BME280;47927;42.646;23.096;2022-11-13T06:04:52;93452.59;;;9.10;62.14
61963;BME280;47927;42.646;23.096;2022-11-13T06:07:36;93453.03;;;9.12;62.52
61963;BME280;47927;42.646;23.096;2022-11-13T06:10:20;93412.97;;;8.92;62.23
61963;BME280;47927;42.646;23.096;2022-11-13T06:13:04;93425.41;;;9.07;62.13
61963;BME280;47927;42.646;23.096;2022-11-13T06:15:48;93451.22;;;9.46;62.34
61963;BME280;47927;42.646;23.096;2022-11-13T06:18:33;93383.81;;;9.07;61.83
61963;BME280;47927;42.646;23.096;2022-11-13T06:21:20;93397.44;;;9.25;61.52
61963;BME280;47927;42.646;23.096;2022-11-13T06:24:06;93454.66;;;9.58;62.34
61963;BME280;47927;42.646;23.096;2022-11-13T06:26:50;93455.97;;;9.65;62.29
61963;BME280;47927;42.646;23.096;2022-11-13T06:29:34;93444.91;;;9.68;61.67
61963;BME280;47927;42.646;23.096;2022-11-13T06:32:18;93460.97;;;9.70;61.31
61963;BME280;47927;42.646;23.096;2022-11-13T06:35:02;93456.00;;;9.77;61.30
61963;BME280;47927;42.646;23.096;2022-11-13T06:41:36;93400.81;;;9.84;61.32
61963;BME280;47927;42.646;23.096;2022-11-13T06:44:20;93439.47;;;10.43;60.86
61963;BME280;47927;42.646;23.096;2022-11-13T06:47:04;93444.34;;;10.69;59.77
61963;BME280;47927;42.646;23.096;2022-11-13T06:49:48;93446.63;;;10.83;59.34
61963;BME280;47927;42.646;23.096;2022-11-13T06:52:33;93454.28;;;10.91;58.84
61963;BME280;47927;42.646;23.096;2022-11-13T06:55:17;93446.47;;;11.04;58.27
61963;BME280;47927;42.646;23.096;2022-11-13T07:01:51;93454.91;;;11.41;58.34
61963;BME280;47927;42.646;23.096;2022-11-13T07:04:35;93448.53;;;11.67;57.41
61963;BME280;47927;42.646;23.096;2022-11-13T07:07:20;93431.84;;;11.71;57.03
61963;BME280;47927;42.646;23.096;2022-11-13T07:10:04;93434.09;;;12.01;56.37
61963;BME280;47927;42.646;23.096;2022-11-13T07:13:17;93450.78;;;12.28;55.79
61963;BME280;47927;42.646;23.096;2022-11-13T07:16:03;93413.59;;;12.19;55.97
61963;BME280;47927;42.646;23.096;2022-11-13T07:18:55;93457.66;;;12.68;55.35
61963;BME280;47927;42.646;23.096;2022-11-13T07:21:39;93452.25;;;12.76;55.05
61963;BME280;47927;42.646;23.096;2022-11-13T07:24:23;93459.13;;;12.85;54.98
61963;BME280;47927;42.646;23.096;2022-11-13T07:27:07;93430.94;;;12.94;54.56
61963;BME280;47927;42.646;23.096;2022-11-13T07:29:51;93458.78;;;13.21;53.60
61963;BME280;47927;42.646;23.096;2022-11-13T07:36:22;93457.66;;;13.22;52.06
61963;BME280;47927;42.646;23.096;2022-11-13T07:39:06;93448.22;;;12.98;52.07
61963;BME280;47927;42.646;23.096;2022-11-13T07:41:50;93451.84;;;13.29;51.87
61963;BME280;47927;42.646;23.096;2022-11-13T07:44:35;93440.09;;;13.39;50.83
61963;BME280;47927;42.646;23.096;2022-11-13T07:47:19;93437.47;;;13.39;50.00
61963;BME280;47927;42.646;23.096;2022-11-13T07:50:04;93443.19;;;13.44;50.22
61963;BME280;47927;42.646;23.096;2022-11-13T07:52:48;93448.69;;;13.39;50.62
61963;BME280;47927;42.646;23.096;2022-11-13T07:55:33;93447.38;;;13.68;50.07
61963;BME280;47927;42.646;23.096;2022-11-13T07:58:17;93449.78;;;13.77;50.33
61963;BME280;47927;42.646;23.096;2022-11-13T08:01:03;93440.59;;;14.10;50.71
61963;BME280;47927;42.646;23.096;2022-11-13T08:03:47;93416.22;;;14.09;51.72
61963;BME280;47927;42.646;23.096;2022-11-13T08:06:31;93441.38;;;14.87;49.26
61963;BME280;47927;42.646;23.096;2022-11-13T08:09:15;93442.63;;;14.96;48.58
61963;BME280;47927;42.646;23.096;2022-11-13T08:11:59;93403.69;;;15.02;46.73
61963;BME280;47927;42.646;23.096;2022-11-13T08:14:43;93442.41;;;15.39;45.42
61963;BME280;47927;42.646;23.096;2022-11-13T08:17:27;93436.66;;;15.30;43.96
61963;BME280;47927;42.646;23.096;2022-11-13T08:20:10;93442.91;;;15.52;43.78
61963;BME280;47927;42.646;23.096;2022-11-13T08:22:59;93438.88;;;15.61;43.73
61963;BME280;47927;42.646;23.096;2022-11-13T08:29:30;93455.13;;;15.07;44.20
61963;BME280;47927;42.646;23.096;2022-11-13T08:32:16;93453.72;;;14.86;43.91
61963;BME280;47927;42.646;23.096;2022-11-13T08:38:47;93450.66;;;14.80;44.63
61963;BME280;47927;42.646;23.096;2022-11-13T08:41:31;93457.34;;;14.78;42.56
61963;BME280;47927;42.646;23.096;2022-11-13T08:44:15;93461.41;;;14.72;44.22
61963;BME280;47927;42.646;23.096;2022-11-13T08:46:59;93457.00;;;14.53;43.49
61963;BME280;47927;42.646;23.096;2022-11-13T08:49:43;93459.31;;;14.35;44.70
61963;BME280;47927;42.646;23.096;2022-11-13T08:52:27;93458.84;;;14.75;44.14
61963;BME280;47927;42.646;23.096;2022-11-13T08:55:11;93405.50;;;14.18;43.95
61963;BME280;47927;42.646;23.096;2022-11-13T08:57:58;93403.66;;;14.45;43.96
61963;BME280;47927;42.646;23.096;2022-11-13T09:00:43;93434.47;;;14.75;43.02
61963;BME280;47927;42.646;23.096;2022-11-13T09:03:27;93455.50;;;15.05;42.60
61963;BME280;47927;42.646;23.096;2022-11-13T09:06:11;93434.72;;;15.23;42.23
61963;BME280;47927;42.646;23.096;2022-11-13T09:08:55;93417.97;;;15.04;42.27
61963;BME280;47927;42.646;23.096;2022-11-13T09:11:40;93471.56;;;15.30;42.48
61963;BME280;47927;42.646;23.096;2022-11-13T09:14:24;93462.88;;;15.26;42.50
61963;BME280;47927;42.646;23.096;2022-11-13T09:17:08;93466.13;;;15.16;42.31
61963;BME280;47927;42.646;23.096;2022-11-13T09:19:52;93466.31;;;15.98;40.56
61963;BME280;47927;42.646;23.096;2022-11-13T09:22:36;93463.47;;;16.17;41.21
61963;BME280;47927;42.646;23.096;2022-11-13T09:25:43;93459.63;;;18.05;36.77
61963;BME280;47927;42.646;23.096;2022-11-13T09:28:28;93461.75;;;17.53;37.12
61963;BME280;47927;42.646;23.096;2022-11-13T09:31:13;93413.94;;;17.54;36.71
61963;BME280;47927;42.646;23.096;2022-11-13T09:33:56;93457.03;;;18.12;35.74
61963;BME280;47927;42.646;23.096;2022-11-13T09:36:40;93451.00;;;18.51;34.83
61963;BME280;47927;42.646;23.096;2022-11-13T09:39:25;93432.16;;;18.92;34.87
61963;BME280;47927;42.646;23.096;2022-11-13T09:42:13;93451.34;;;19.00;34.30
61963;BME280;47927;42.646;23.096;2022-11-13T09:45:05;93389.91;;;18.67;34.42
61963;BME280;47927;42.646;23.096;2022-11-13T09:47:52;93421.84;;;19.33;33.87
61963;BME280;47927;42.646;23.096;2022-11-13T09:50:38;93404.94;;;19.06;33.73
61963;BME280;47927;42.646;23.096;2022-11-13T09:53:22;93438.56;;;19.93;32.98
61963;BME280;47927;42.646;23.096;2022-11-13T09:56:27;93419.28;;;19.96;32.20
61963;BME280;47927;42.646;23.096;2022-11-13T09:59:28;93434.38;;;19.99;32.38
61963;BME280;47927;42.646;23.096;2022-11-13T10:11:39;93417.94;;;20.26;31.54
61963;BME280;47927;42.646;23.096;2022-11-13T10:14:35;93412.69;;;20.19;32.40
61963;BME280;47927;42.646;23.096;2022-11-13T10:22:57;93409.09;;;20.47;31.57
61963;BME280;47927;42.646;23.096;2022-11-13T10:25:44;93399.28;;;19.92;32.13
61963;BME280;47927;42.646;23.096;2022-11-13T10:28:31;93380.75;;;19.15;33.33
61963;BME280;47927;42.646;23.096;2022-11-13T10:31:16;93405.38;;;19.78;32.78
61963;BME280;47927;42.646;23.096;2022-11-13T10:34:00;93404.50;;;19.25;33.48
61963;BME280;47927;42.646;23.096;2022-11-13T10:39:52;93401.81;;;19.36;32.94
61963;BME280;47927;42.646;23.096;2022-11-13T10:42:40;93397.47;;;18.76;34.89
61963;BME280;47927;42.646;23.096;2022-11-13T10:45:25;93347.50;;;19.24;33.40
61963;BME280;47927;42.646;23.096;2022-11-13T10:48:26;93388.06;;;18.50;34.83
61963;BME280;47927;42.646;23.096;2022-11-13T10:51:27;93394.47;;;17.88;36.27
61963;BME280;47927;42.646;23.096;2022-11-13T10:54:24;93377.53;;;18.10;35.62
61963;BME280;47927;42.646;23.096;2022-11-13T11:00:55;93380.16;;;17.89;36.60
61963;BME280;47927;42.646;23.096;2022-11-13T11:03:47;93374.00;;;17.38;37.49
61963;BME280;47927;42.646;23.096;2022-11-13T11:06:34;93375.78;;;17.05;38.31
61963;BME280;47927;42.646;23.096;2022-11-13T11:09:20;93368.47;;;16.77;39.33
61963;BME280;47927;42.646;23.096;2022-11-13T11:15:08;93366.84;;;17.46;38.06
61963;BME280;47927;42.646;23.096;2022-11-13T11:18:04;93333.03;;;17.62;38.32
61963;BME280;47927;42.646;23.096;2022-11-13T11:20:56;93349.28;;;18.00;37.45
61963;BME280;47927;42.646;23.096;2022-11-13T11:26:38;93308.56;;;17.72;38.16
61963;BME280;47927;42.646;23.096;2022-11-13T11:29:33;93301.81;;;17.89;37.62
61963;BME280;47927;42.646;23.096;2022-11-13T11:35:37;93343.25;;;18.25;36.98
61963;BME280;47927;42.646;23.096;2022-11-13T11:38:34;93346.59;;;17.64;38.39
61963;BME280;47927;42.646;23.096;2022-11-13T11:41:24;93309.56;;;17.07;39.05
61963;BME280;47927;42.646;23.096;2022-11-13T11:44:27;93330.38;;;17.48;38.56
61963;BME280;47927;42.646;23.096;2022-11-13T11:47:14;93303.63;;;17.42;38.09
61963;BME280;47927;42.646;23.096;2022-11-13T11:49:59;93326.19;;;17.36;38.36
61963;BME280;47927;42.646;23.096;2022-11-13T12:07:46;93328.13;;;17.61;38.49
61963;BME280;47927;42.646;23.096;2022-11-13T12:10:50;93315.34;;;17.73;37.97
61963;BME280;47927;42.646;23.096;2022-11-13T12:17:08;93307.16;;;16.66;41.16
61963;BME280;47927;42.646;23.096;2022-11-13T12:20:29;93323.94;;;16.44;41.71
61963;BME280;47927;42.646;23.096;2022-11-13T12:23:39;93315.53;;;16.24;41.95
61963;BME280;47927;42.646;23.096;2022-11-13T12:26:35;93320.94;;;16.45;41.62
61963;BME280;47927;42.646;23.096;2022-11-13T12:35:59;93320.56;;;15.10;44.64
61963;BME280;47927;42.646;23.096;2022-11-13T12:38:57;93316.44;;;15.09;44.83
61963;BME280;47927;42.646;23.096;2022-11-13T12:44:46;93309.19;;;14.98;44.44
61963;BME280;47927;42.646;23.096;2022-11-13T12:47:34;93280.28;;;14.31;45.33
61963;BME280;47927;42.646;23.096;2022-11-13T12:50:28;93315.63;;;13.91;47.45
61963;BME280;47927;42.646;23.096;2022-11-13T12:53:24;93308.91;;;13.90;47.29
61963;BME280;47927;42.646;23.096;2022-11-13T12:59:29;93313.41;;;15.44;43.79
61963;BME280;47927;42.646;23.096;2022-11-13T13:23:29;93301.38;;;14.15;46.07
61963;BME280;47927;42.646;23.096;2022-11-13T13:26:22;93255.84;;;13.97;45.33
61963;BME280;47927;42.646;23.096;2022-11-13T13:29:28;93273.44;;;14.23;45.13
61963;BME280;47927;42.646;23.096;2022-11-13T13:32:22;93291.06;;;14.26;45.36
61963;BME280;47927;42.646;23.096;2022-11-13T13:35:16;93247.19;;;13.93;45.56
61963;BME280;47927;42.646;23.096;2022-11-13T13:43:54;93288.03;;;14.24;45.63
61963;BME280;47927;42.646;23.096;2022-11-13T13:46:40;93268.50;;;13.91;45.71
61963;BME280;47927;42.646;23.096;2022-11-13T13:49:26;93237.75;;;13.61;45.58
61963;BME280;47927;42.646;23.096;2022-11-13T13:52:13;93260.88;;;14.09;45.29
61963;BME280;47927;42.646;23.096;2022-11-13T13:55:00;93253.06;;;13.86;44.47
61963;BME280;47927;42.646;23.096;2022-11-13T13:57:45;93285.41;;;13.71;45.61
61963;BME280;47927;42.646;23.096;2022-11-13T14:00:30;93247.44;;;14.10;44.26
61963;BME280;47927;42.646;23.096;2022-11-13T14:03:20;93284.78;;;14.61;44.12
61963;BME280;47927;42.646;23.096;2022-11-13T14:06:23;93278.72;;;14.56;43.56
61963;BME280;47927;42.646;23.096;2022-11-13T14:09:09;93283.97;;;14.56;43.24
61963;BME280;47927;42.646;23.096;2022-11-13T14:12:01;93277.03;;;14.41;43.03
61963;BME280;47927;42.646;23.096;2022-11-13T14:14:46;93283.13;;;14.79;42.56
61963;BME280;47927;42.646;23.096;2022-11-13T14:17:31;93268.47;;;14.78;42.85
61963;BME280;47927;42.646;23.096;2022-11-13T14:20:17;93226.44;;;14.37;44.37
61963;BME280;47927;42.646;23.096;2022-11-13T14:23:01;93220.53;;;14.13;45.25
61963;BME280;47927;42.646;23.096;2022-11-13T14:25:46;93234.09;;;13.93;45.76
61963;BME280;47927;42.646;23.096;2022-11-13T14:28:41;93268.78;;;13.86;46.80
61963;BME280;47927;42.646;23.096;2022-11-13T14:31:32;93272.09;;;13.83;46.93
61963;BME280;47927;42.646;23.096;2022-11-13T14:34:18;93268.44;;;13.87;47.15
61963;BME280;47927;42.646;23.096;2022-11-13T14:37:28;93277.63;;;13.28;47.96
61963;BME280;47927;42.646;23.096;2022-11-13T14:40:25;93280.06;;;12.78;49.72
61963;BME280;47927;42.646;23.096;2022-11-13T14:43:18;93273.25;;;12.54;50.26
61963;BME280;47927;42.646;23.096;2022-11-13T14:46:05;93272.81;;;12.14;51.22
61963;BME280;47927;42.646;23.096;2022-11-13T14:49:13;93267.66;;;11.50;52.76
61963;BME280;47927;42.646;23.096;2022-11-13T14:51:57;93277.75;;;11.52;52.46
61963;BME280;47927;42.646;23.096;2022-11-13T14:54:43;93266.19;;;11.69;52.43
61963;BME280;47927;42.646;23.096;2022-11-13T14:57:27;93240.97;;;11.41;52.17
61963;BME280;47927;42.646;23.096;2022-11-13T15:00:16;93232.13;;;11.30;52.60
61963;BME280;47927;42.646;23.096;2022-11-13T15:03:02;93220.66;;;10.71;54.08
61963;BME280;47927;42.646;23.096;2022-11-13T15:05:47;93256.50;;;11.06;54.00
61963;BME280;47927;42.646;23.096;2022-11-13T15:08:33;93257.69;;;10.92;54.21
61963;BME280;47927;42.646;23.096;2022-11-13T15:11:18;93254.47;;;10.83;54.41
61963;BME280;47927;42.646;23.096;2022-11-13T15:14:02;93213.63;;;10.31;54.69
61963;BME280;47927;42.646;23.096;2022-11-13T15:16:48;93257.47;;;10.41;55.63
61963;BME280;47927;42.646;23.096;2022-11-13T15:19:34;93251.59;;;10.44;55.51
61963;BME280;47927;42.646;23.096;2022-11-13T15:22:19;93217.91;;;10.52;54.50
61963;BME280;47927;42.646;23.096;2022-11-13T15:25:12;93260.72;;;10.66;54.64
61963;BME280;47927;42.646;23.096;2022-11-13T15:27:56;93208.00;;;10.29;54.77
61963;BME280;47927;42.646;23.096;2022-11-13T15:30:40;93254.88;;;10.17;55.91
61963;BME280;47927;42.646;23.096;2022-11-13T15:33:26;93245.09;;;9.86;56.99
61963;BME280;47927;42.646;23.096;2022-11-13T15:36:10;93262.50;;;10.10;56.34
61963;BME280;47927;42.646;23.096;2022-11-13T15:38:59;93211.50;;;9.44;57.22
61963;BME280;47927;42.646;23.096;2022-11-13T15:41:43;93229.06;;;9.47;57.15
61963;BME280;47927;42.646;23.096;2022-11-13T15:44:29;93263.75;;;9.88;56.26
61963;BME280;47927;42.646;23.096;2022-11-13T15:47:28;93262.31;;;9.66;56.61
61963;BME280;47927;42.646;23.096;2022-11-13T15:50:13;93263.19;;;9.45;56.86
61963;BME280;47927;42.646;23.096;2022-11-13T15:52:57;93262.22;;;9.38;57.13
61963;BME280;47927;42.646;23.096;2022-11-13T15:55:42;93234.00;;;8.90;57.93
61963;BME280;47927;42.646;23.096;2022-11-13T15:58:26;93210.59;;;8.78;57.82
61963;BME280;47927;42.646;23.096;2022-11-13T16:01:14;93256.31;;;9.04;57.59
61963;BME280;47927;42.646;23.096;2022-11-13T16:03:58;93243.13;;;9.21;56.77
61963;BME280;47927;42.646;23.096;2022-11-13T16:06:45;93192.22;;;8.96;55.90
61963;BME280;47927;42.646;23.096;2022-11-13T16:09:29;93218.78;;;8.80;56.17
61963;BME280;47927;42.646;23.096;2022-11-13T16:12:13;93272.31;;;8.81;57.54
61963;BME280;47927;42.646;23.096;2022-11-13T16:14:57;93216.97;;;8.81;56.58
61963;BME280;47927;42.646;23.096;2022-11-13T16:17:48;93242.16;;;9.13;55.77
61963;BME280;47927;42.646;23.096;2022-11-13T16:20:33;93247.03;;;9.27;54.89
61963;BME280;47927;42.646;23.096;2022-11-13T16:23:17;93275.09;;;9.22;55.09
61963;BME280;47927;42.646;23.096;2022-11-13T16:26:02;93230.25;;;8.67;55.73
61963;BME280;47927;42.646;23.096;2022-11-13T16:32:34;93248.03;;;7.72;59.32
61963;BME280;47927;42.646;23.096;2022-11-13T16:35:19;93282.31;;;8.29;58.84
61963;BME280;47927;42.646;23.096;2022-11-13T16:38:10;93258.22;;;8.49;57.48
61963;BME280;47927;42.646;23.096;2022-11-13T16:40:55;93195.56;;;8.30;56.18
61963;BME280;47927;42.646;23.096;2022-11-13T16:43:39;93275.50;;;8.24;57.87
61963;BME280;47927;42.646;23.096;2022-11-13T16:49:13;93292.41;;;8.09;58.64
61963;BME280;47927;42.646;23.096;2022-11-13T16:52:03;93304.53;;;8.17;58.52
61963;BME280;47927;42.646;23.096;2022-11-13T16:54:47;93293.88;;;8.40;57.78
61963;BME280;47927;42.646;23.096;2022-11-13T16:57:31;93286.06;;;8.61;57.34
61963;BME280;47927;42.646;23.096;2022-11-13T17:00:17;93289.13;;;8.63;57.01
61963;BME280;47927;42.646;23.096;2022-11-13T17:03:02;93291.38;;;8.64;57.00